sensor_id;sensor_type;location;lat;lon;timestamp;P1;durP1;ratioP1;P2;durP2;ratioP2
45322;SDS011;31382;50.200;8.674;2023-12-20T00:00:59;14.48;;;5.05;;
45322;SDS011;31382;50.200;8.674;2023-12-20T00:06:01;9.93;;;4.35;;
45322;SDS011;31382;50.200;8.674;2023-12-20T00:11:02;11.02;;;4.68;;
45322;SDS011;31382;50.200;8.674;2023-12-20T00:16:04;9.70;;;4.15;;
45322;SDS011;31382;50.200;8.674;2023-12-20T00:21:05;10.27;;;3.83;;
45322;SDS011;31382;50.200;8.674;2023-12-20T00:26:07;9.40;;;4.25;;
45322;SDS011;31382;50.200;8.674;2023-12-20T00:31:08;10.68;;;4.35;;
45322;SDS011;31382;50.200;8.674;2023-12-20T00:36:10;12.15;;;4.25;;
45322;SDS011;31382;50.200;8.674;2023-12-20T00:41:11;9.75;;;4.50;;
45322;SDS011;31382;50.200;8.674;2023-12-20T00:46:13;7.30;;;3.72;;
45322;SDS011;31382;50.200;8.674;2023-12-20T00:51:14;9.10;;;3.90;;
45322;SDS011;31382;50.200;8.674;2023-12-20T00:56:16;7.55;;;4.43;;
45322;SDS011;31382;50.200;8.674;2023-12-20T01:01:17;9.95;;;4.00;;
45322;SDS011;31382;50.200;8.674;2023-12-20T01:06:19;8.52;;;4.07;;
45322;SDS011;31382;50.200;8.674;2023-12-20T01:11:20;9.57;;;4.18;;
45322;SDS011;31382;50.200;8.674;2023-12-20T01:16:22;8.95;;;3.90;;
45322;SDS011;31382;50.200;8.674;2023-12-20T01:21:23;8.05;;;3.35;;
45322;SDS011;31382;50.200;8.674;2023-12-20T01:26:25;6.95;;;3.97;;
45322;SDS011;31382;50.200;8.674;2023-12-20T01:31:26;8.98;;;3.35;;
45322;SDS011;31382;50.200;8.674;2023-12-20T01:36:28;10.00;;;3.78;;
45322;SDS011;31382;50.200;8.674;2023-12-20T01:41:30;6.70;;;3.55;;
45322;SDS011;31382;50.200;8.674;2023-12-20T01:46:31;5.45;;;3.00;;
45322;SDS011;31382;50.200;8.674;2023-12-20T01:51:33;7.40;;;3.50;;
45322;SDS011;31382;50.200;8.674;2023-12-20T01:56:35;8.45;;;3.55;;
45322;SDS011;31382;50.200;8.674;2023-12-20T02:01:36;8.82;;;3.53;;
45322;SDS011;31382;50.200;8.674;2023-12-20T02:06:38;8.68;;;3.72;;
45322;SDS011;31382;50.200;8.674;2023-12-20T02:11:41;7.10;;;2.40;;
45322;SDS011;31382;50.200;8.674;2023-12-20T02:16:42;10.00;;;3.47;;
45322;SDS011;31382;50.200;8.674;2023-12-20T02:21:44;7.30;;;3.17;;
45322;SDS011;31382;50.200;8.674;2023-12-20T02:26:45;8.23;;;3.28;;
45322;SDS011;31382;50.200;8.674;2023-12-20T02:31:47;7.63;;;3.17;;
45322;SDS011;31382;50.200;8.674;2023-12-20T02:36:49;7.22;;;2.95;;
45322;SDS011;31382;50.200;8.674;2023-12-20T02:41:50;7.55;;;2.80;;
45322;SDS011;31382;50.200;8.674;2023-12-20T02:46:51;5.75;;;3.03;;
45322;SDS011;31382;50.200;8.674;2023-12-20T02:51:53;5.43;;;3.22;;
45322;SDS011;31382;50.200;8.674;2023-12-20T02:56:54;8.10;;;3.28;;
45322;SDS011;31382;50.200;8.674;2023-12-20T03:01:56;8.75;;;3.15;;
45322;SDS011;31382;50.200;8.674;2023-12-20T03:06:58;8.02;;;2.70;;
45322;SDS011;31382;50.200;8.674;2023-12-20T03:11:59;7.13;;;2.80;;
45322;SDS011;31382;50.200;8.674;2023-12-20T03:17:00;6.80;;;2.78;;
45322;SDS011;31382;50.200;8.674;2023-12-20T03:22:02;7.88;;;3.10;;
45322;SDS011;31382;50.200;8.674;2023-12-20T03:27:03;6.72;;;2.58;;
45322;SDS011;31382;50.200;8.674;2023-12-20T03:32:05;5.85;;;2.55;;
45322;SDS011;31382;50.200;8.674;2023-12-20T03:37:07;4.43;;;2.03;;
45322;SDS011;31382;50.200;8.674;2023-12-20T03:42:08;4.22;;;2.33;;
45322;SDS011;31382;50.200;8.674;2023-12-20T03:47:09;6.15;;;2.60;;
45322;SDS011;31382;50.200;8.674;2023-12-20T03:52:11;5.65;;;2.70;;
45322;SDS011;31382;50.200;8.674;2023-12-20T03:57:13;5.25;;;2.85;;
45322;SDS011;31382;50.200;8.674;2023-12-20T04:02:14;4.45;;;2.05;;
45322;SDS011;31382;50.200;8.674;2023-12-20T04:07:16;3.90;;;1.58;;
45322;SDS011;31382;50.200;8.674;2023-12-20T04:12:18;4.05;;;1.83;;
45322;SDS011;31382;50.200;8.674;2023-12-20T04:17:19;5.50;;;2.30;;
45322;SDS011;31382;50.200;8.674;2023-12-20T04:22:21;5.40;;;2.10;;
45322;SDS011;31382;50.200;8.674;2023-12-20T04:27:23;5.47;;;1.98;;
45322;SDS011;31382;50.200;8.674;2023-12-20T04:32:24;4.68;;;1.58;;
45322;SDS011;31382;50.200;8.674;2023-12-20T04:37:25;8.73;;;1.65;;
45322;SDS011;31382;50.200;8.674;2023-12-20T04:42:27;5.10;;;1.95;;
45322;SDS011;31382;50.200;8.674;2023-12-20T04:47:28;4.05;;;1.90;;
45322;SDS011;31382;50.200;8.674;2023-12-20T04:52:30;3.75;;;2.17;;
45322;SDS011;31382;50.200;8.674;2023-12-20T04:57:32;5.40;;;2.72;;
45322;SDS011;31382;50.200;8.674;2023-12-20T05:02:33;7.20;;;2.75;;
45322;SDS011;31382;50.200;8.674;2023-12-20T05:07:35;6.70;;;2.65;;
45322;SDS011;31382;50.200;8.674;2023-12-20T05:12:37;4.03;;;1.20;;
45322;SDS011;31382;50.200;8.674;2023-12-20T05:17:38;2.97;;;0.57;;
45322;SDS011;31382;50.200;8.674;2023-12-20T05:22:40;3.00;;;0.82;;
45322;SDS011;31382;50.200;8.674;2023-12-20T05:27:42;3.55;;;0.60;;
45322;SDS011;31382;50.200;8.674;2023-12-20T05:32:44;6.97;;;0.60;;
45322;SDS011;31382;50.200;8.674;2023-12-20T05:37:45;4.72;;;0.40;;
45322;SDS011;31382;50.200;8.674;2023-12-20T05:42:47;3.30;;;0.30;;
45322;SDS011;31382;50.200;8.674;2023-12-20T05:47:49;2.17;;;0.77;;
45322;SDS011;31382;50.200;8.674;2023-12-20T05:52:50;1.52;;;0.40;;
45322;SDS011;31382;50.200;8.674;2023-12-20T05:57:52;1.60;;;0.38;;
45322;SDS011;31382;50.200;8.674;2023-12-20T06:02:54;2.30;;;0.40;;
45322;SDS011;31382;50.200;8.674;2023-12-20T06:07:55;4.80;;;0.30;;
45322;SDS011;31382;50.200;8.674;2023-12-20T06:13:02;3.28;;;0.40;;
45322;SDS011;31382;50.200;8.674;2023-12-20T06:18:05;5.72;;;0.50;;
45322;SDS011;31382;50.200;8.674;2023-12-20T06:23:07;5.65;;;1.05;;
45322;SDS011;31382;50.200;8.674;2023-12-20T06:28:09;3.10;;;0.30;;
45322;SDS011;31382;50.200;8.674;2023-12-20T06:33:11;10.80;;;0.57;;
45322;SDS011;31382;50.200;8.674;2023-12-20T06:38:13;4.53;;;0.47;;
45322;SDS011;31382;50.200;8.674;2023-12-20T06:43:14;3.80;;;0.40;;
45322;SDS011;31382;50.200;8.674;2023-12-20T06:48:35;4.30;;;0.50;;
45322;SDS011;31382;50.200;8.674;2023-12-20T06:53:37;5.15;;;0.50;;
45322;SDS011;31382;50.200;8.674;2023-12-20T06:58:38;6.45;;;1.80;;
45322;SDS011;31382;50.200;8.674;2023-12-20T07:03:40;3.20;;;0.50;;
45322;SDS011;31382;50.200;8.674;2023-12-20T07:08:42;5.20;;;0.75;;
45322;SDS011;31382;50.200;8.674;2023-12-20T07:13:43;1.17;;;0.32;;
45322;SDS011;31382;50.200;8.674;2023-12-20T07:18:45;3.25;;;0.70;;
45322;SDS011;31382;50.200;8.674;2023-12-20T07:23:46;5.65;;;0.80;;
45322;SDS011;31382;50.200;8.674;2023-12-20T07:28:48;4.38;;;0.55;;
45322;SDS011;31382;50.200;8.674;2023-12-20T07:33:49;4.18;;;1.02;;
45322;SDS011;31382;50.200;8.674;2023-12-20T07:38:51;5.97;;;1.00;;
45322;SDS011;31382;50.200;8.674;2023-12-20T07:43:52;6.45;;;0.90;;
45322;SDS011;31382;50.200;8.674;2023-12-20T07:48:54;3.25;;;0.80;;
45322;SDS011;31382;50.200;8.674;2023-12-20T07:53:56;1.67;;;0.80;;
45322;SDS011;31382;50.200;8.674;2023-12-20T07:58:57;5.05;;;0.70;;
45322;SDS011;31382;50.200;8.674;2023-12-20T08:04:01;1.30;;;0.80;;
45322;SDS011;31382;50.200;8.674;2023-12-20T08:09:02;4.88;;;0.70;;
45322;SDS011;31382;50.200;8.674;2023-12-20T08:14:07;4.82;;;0.88;;
45322;SDS011;31382;50.200;8.674;2023-12-20T08:19:08;6.18;;;0.80;;
45322;SDS011;31382;50.200;8.674;2023-12-20T08:24:10;5.18;;;1.23;;
45322;SDS011;31382;50.200;8.674;2023-12-20T08:29:14;8.35;;;0.82;;
45322;SDS011;31382;50.200;8.674;2023-12-20T08:34:16;7.30;;;1.50;;
45322;SDS011;31382;50.200;8.674;2023-12-20T08:39:17;10.68;;;1.30;;
45322;SDS011;31382;50.200;8.674;2023-12-20T08:44:19;2.45;;;0.50;;
45322;SDS011;31382;50.200;8.674;2023-12-20T08:49:20;4.70;;;1.10;;
45322;SDS011;31382;50.200;8.674;2023-12-20T08:54:22;2.30;;;0.90;;
45322;SDS011;31382;50.200;8.674;2023-12-20T08:59:23;11.18;;;1.00;;
45322;SDS011;31382;50.200;8.674;2023-12-20T09:04:25;5.20;;;0.65;;
45322;SDS011;31382;50.200;8.674;2023-12-20T09:09:26;2.22;;;0.60;;
45322;SDS011;31382;50.200;8.674;2023-12-20T09:14:28;6.18;;;0.60;;
45322;SDS011;31382;50.200;8.674;2023-12-20T09:19:29;9.40;;;1.38;;
45322;SDS011;31382;50.200;8.674;2023-12-20T09:24:31;5.15;;;0.90;;
45322;SDS011;31382;50.200;8.674;2023-12-20T09:29:33;4.60;;;0.75;;
45322;SDS011;31382;50.200;8.674;2023-12-20T09:34:34;2.00;;;0.93;;
45322;SDS011;31382;50.200;8.674;2023-12-20T09:39:36;5.50;;;1.05;;
45322;SDS011;31382;50.200;8.674;2023-12-20T09:44:37;11.00;;;0.70;;
45322;SDS011;31382;50.200;8.674;2023-12-20T09:49:42;6.47;;;0.63;;
45322;SDS011;31382;50.200;8.674;2023-12-20T09:54:45;1.38;;;0.60;;
45322;SDS011;31382;50.200;8.674;2023-12-20T09:59:50;5.88;;;0.65;;
45322;SDS011;31382;50.200;8.674;2023-12-20T10:04:52;2.75;;;0.68;;
45322;SDS011;31382;50.200;8.674;2023-12-20T10:09:54;4.55;;;0.80;;
45322;SDS011;31382;50.200;8.674;2023-12-20T10:14:57;3.88;;;0.60;;
45322;SDS011;31382;50.200;8.674;2023-12-20T10:19:58;3.42;;;0.60;;
45322;SDS011;31382;50.200;8.674;2023-12-20T10:25:00;5.45;;;1.42;;
45322;SDS011;31382;50.200;8.674;2023-12-20T10:30:02;4.15;;;0.80;;
45322;SDS011;31382;50.200;8.674;2023-12-20T10:35:04;4.38;;;0.90;;
45322;SDS011;31382;50.200;8.674;2023-12-20T10:40:06;5.30;;;0.70;;
45322;SDS011;31382;50.200;8.674;2023-12-20T10:45:09;6.97;;;0.85;;
45322;SDS011;31382;50.200;8.674;2023-12-20T10:50:10;5.35;;;0.85;;
45322;SDS011;31382;50.200;8.674;2023-12-20T10:55:12;4.78;;;1.10;;
45322;SDS011;31382;50.200;8.674;2023-12-20T11:00:14;3.33;;;0.90;;
45322;SDS011;31382;50.200;8.674;2023-12-20T11:11:06;4.55;;;0.47;;
45322;SDS011;31382;50.200;8.674;2023-12-20T11:16:13;2.88;;;0.82;;
45322;SDS011;31382;50.200;8.674;2023-12-20T11:21:15;6.25;;;0.60;;
45322;SDS011;31382;50.200;8.674;2023-12-20T11:26:17;2.97;;;0.40;;
45322;SDS011;31382;50.200;8.674;2023-12-20T11:31:27;4.82;;;1.40;;
45322;SDS011;31382;50.200;8.674;2023-12-20T11:36:32;1.80;;;0.30;;
45322;SDS011;31382;50.200;8.674;2023-12-20T11:41:33;4.15;;;0.68;;
45322;SDS011;31382;50.200;8.674;2023-12-20T11:46:35;3.45;;;1.08;;
45322;SDS011;31382;50.200;8.674;2023-12-20T11:51:40;3.50;;;0.47;;
45322;SDS011;31382;50.200;8.674;2023-12-20T11:56:42;4.55;;;0.50;;
45322;SDS011;31382;50.200;8.674;2023-12-20T12:01:50;6.95;;;0.55;;
45322;SDS011;31382;50.200;8.674;2023-12-20T12:06:53;6.45;;;0.70;;
45322;SDS011;31382;50.200;8.674;2023-12-20T12:11:55;2.80;;;0.40;;
45322;SDS011;31382;50.200;8.674;2023-12-20T12:16:57;1.88;;;0.30;;
45322;SDS011;31382;50.200;8.674;2023-12-20T12:22:08;7.50;;;0.47;;
45322;SDS011;31382;50.200;8.674;2023-12-20T12:27:18;1.48;;;0.28;;
45322;SDS011;31382;50.200;8.674;2023-12-20T12:32:19;13.30;;;0.77;;
45322;SDS011;31382;50.200;8.674;2023-12-20T12:37:20;3.67;;;0.30;;
45322;SDS011;31382;50.200;8.674;2023-12-20T12:42:25;2.38;;;0.20;;
45322;SDS011;31382;50.200;8.674;2023-12-20T12:47:30;3.25;;;0.30;;
45322;SDS011;31382;50.200;8.674;2023-12-20T12:52:32;2.67;;;0.55;;
45322;SDS011;31382;50.200;8.674;2023-12-20T12:57:33;3.10;;;0.60;;
45322;SDS011;31382;50.200;8.674;2023-12-20T13:02:35;1.80;;;0.28;;
45322;SDS011;31382;50.200;8.674;2023-12-20T13:07:38;4.53;;;0.30;;
45322;SDS011;31382;50.200;8.674;2023-12-20T13:12:40;3.58;;;0.38;;
45322;SDS011;31382;50.200;8.674;2023-12-20T13:17:42;4.53;;;0.40;;
45322;SDS011;31382;50.200;8.674;2023-12-20T13:22:44;2.15;;;0.30;;
45322;SDS011;31382;50.200;8.674;2023-12-20T13:27:45;3.80;;;0.38;;
45322;SDS011;31382;50.200;8.674;2023-12-20T13:32:47;5.30;;;0.63;;
45322;SDS011;31382;50.200;8.674;2023-12-20T13:37:50;4.00;;;0.50;;
45322;SDS011;31382;50.200;8.674;2023-12-20T13:42:51;3.38;;;0.40;;
45322;SDS011;31382;50.200;8.674;2023-12-20T13:47:53;3.08;;;0.70;;
45322;SDS011;31382;50.200;8.674;2023-12-20T13:52:54;3.47;;;0.30;;
45322;SDS011;31382;50.200;8.674;2023-12-20T13:57:56;4.72;;;0.70;;
45322;SDS011;31382;50.200;8.674;2023-12-20T14:02:59;3.42;;;0.40;;
45322;SDS011;31382;50.200;8.674;2023-12-20T14:08:00;6.15;;;0.70;;
45322;SDS011;31382;50.200;8.674;2023-12-20T14:13:02;7.32;;;0.73;;
45322;SDS011;31382;50.200;8.674;2023-12-20T14:18:06;2.80;;;0.40;;
45322;SDS011;31382;50.200;8.674;2023-12-20T14:23:09;3.83;;;0.40;;
45322;SDS011;31382;50.200;8.674;2023-12-20T14:28:10;2.10;;;0.50;;
45322;SDS011;31382;50.200;8.674;2023-12-20T14:33:15;4.70;;;0.40;;
45322;SDS011;31382;50.200;8.674;2023-12-20T14:38:16;4.00;;;0.60;;
45322;SDS011;31382;50.200;8.674;2023-12-20T14:43:18;2.53;;;0.55;;
45322;SDS011;31382;50.200;8.674;2023-12-20T14:48:19;3.50;;;0.85;;
45322;SDS011;31382;50.200;8.674;2023-12-20T14:53:22;2.42;;;0.40;;
45322;SDS011;31382;50.200;8.674;2023-12-20T14:58:24;9.27;;;0.52;;
45322;SDS011;31382;50.200;8.674;2023-12-20T15:03:25;5.15;;;0.50;;
45322;SDS011;31382;50.200;8.674;2023-12-20T15:08:27;2.47;;;0.40;;
45322;SDS011;31382;50.200;8.674;2023-12-20T15:13:28;5.05;;;0.30;;
45322;SDS011;31382;50.200;8.674;2023-12-20T15:18:30;3.08;;;0.30;;
45322;SDS011;31382;50.200;8.674;2023-12-20T15:23:33;2.70;;;0.20;;
45322;SDS011;31382;50.200;8.674;2023-12-20T15:28:34;3.25;;;0.30;;
45322;SDS011;31382;50.200;8.674;2023-12-20T15:33:36;4.20;;;0.43;;
45322;SDS011;31382;50.200;8.674;2023-12-20T15:38:37;1.67;;;0.20;;
45322;SDS011;31382;50.200;8.674;2023-12-20T15:43:39;2.35;;;0.30;;
45322;SDS011;31382;50.200;8.674;2023-12-20T15:48:41;2.08;;;0.30;;
45322;SDS011;31382;50.200;8.674;2023-12-20T15:53:43;1.77;;;0.43;;
45322;SDS011;31382;50.200;8.674;2023-12-20T15:58:44;5.03;;;1.05;;
45322;SDS011;31382;50.200;8.674;2023-12-20T16:03:49;4.70;;;0.82;;
45322;SDS011;31382;50.200;8.674;2023-12-20T16:08:59;2.92;;;0.30;;
45322;SDS011;31382;50.200;8.674;2023-12-20T16:14:02;4.90;;;0.40;;
45322;SDS011;31382;50.200;8.674;2023-12-20T16:19:03;1.75;;;0.30;;
45322;SDS011;31382;50.200;8.674;2023-12-20T16:24:05;6.00;;;0.43;;
45322;SDS011;31382;50.200;8.674;2023-12-20T16:29:07;3.22;;;0.57;;
45322;SDS011;31382;50.200;8.674;2023-12-20T16:34:08;4.13;;;0.75;;
45322;SDS011;31382;50.200;8.674;2023-12-20T16:39:10;4.70;;;0.63;;
45322;SDS011;31382;50.200;8.674;2023-12-20T16:44:12;3.03;;;1.15;;
45322;SDS011;31382;50.200;8.674;2023-12-20T16:49:13;5.82;;;0.40;;
45322;SDS011;31382;50.200;8.674;2023-12-20T16:54:15;4.15;;;0.65;;
45322;SDS011;31382;50.200;8.674;2023-12-20T16:59:16;3.35;;;0.40;;
45322;SDS011;31382;50.200;8.674;2023-12-20T17:04:18;2.97;;;0.60;;
45322;SDS011;31382;50.200;8.674;2023-12-20T17:09:19;3.10;;;0.70;;
45322;SDS011;31382;50.200;8.674;2023-12-20T17:14:21;3.38;;;1.50;;
45322;SDS011;31382;50.200;8.674;2023-12-20T17:19:22;8.02;;;1.52;;
45322;SDS011;31382;50.200;8.674;2023-12-20T17:24:25;3.00;;;0.77;;
45322;SDS011;31382;50.200;8.674;2023-12-20T17:29:27;6.93;;;0.90;;
45322;SDS011;31382;50.200;8.674;2023-12-20T17:34:29;4.25;;;0.70;;
45322;SDS011;31382;50.200;8.674;2023-12-20T17:39:30;4.00;;;1.17;;
45322;SDS011;31382;50.200;8.674;2023-12-20T17:44:32;1.80;;;0.73;;
45322;SDS011;31382;50.200;8.674;2023-12-20T17:49:33;8.27;;;3.17;;
45322;SDS011;31382;50.200;8.674;2023-12-20T17:54:35;6.20;;;1.23;;
45322;SDS011;31382;50.200;8.674;2023-12-20T17:59:36;6.30;;;0.73;;
45322;SDS011;31382;50.200;8.674;2023-12-20T18:04:39;6.47;;;0.55;;
45322;SDS011;31382;50.200;8.674;2023-12-20T18:09:41;3.47;;;0.55;;
45322;SDS011;31382;50.200;8.674;2023-12-20T18:14:42;6.97;;;0.77;;
45322;SDS011;31382;50.200;8.674;2023-12-20T18:19:47;3.78;;;1.17;;
45322;SDS011;31382;50.200;8.674;2023-12-20T18:24:48;3.72;;;0.60;;
45322;SDS011;31382;50.200;8.674;2023-12-20T18:29:51;2.40;;;0.85;;
45322;SDS011;31382;50.200;8.674;2023-12-20T18:35:05;4.60;;;0.60;;
45322;SDS011;31382;50.200;8.674;2023-12-20T18:40:07;4.47;;;0.60;;
45322;SDS011;31382;50.200;8.674;2023-12-20T18:45:09;6.45;;;0.70;;
45322;SDS011;31382;50.200;8.674;2023-12-20T18:50:11;2.38;;;0.70;;
45322;SDS011;31382;50.200;8.674;2023-12-20T18:55:12;2.45;;;0.73;;
45322;SDS011;31382;50.200;8.674;2023-12-20T19:00:14;6.30;;;0.85;;
45322;SDS011;31382;50.200;8.674;2023-12-20T19:05:16;12.65;;;1.02;;
45322;SDS011;31382;50.200;8.674;2023-12-20T19:10:20;6.57;;;0.85;;
45322;SDS011;31382;50.200;8.674;2023-12-20T19:15:24;5.78;;;1.67;;
45322;SDS011;31382;50.200;8.674;2023-12-20T19:20:25;5.53;;;1.00;;
45322;SDS011;31382;50.200;8.674;2023-12-20T19:25:27;3.45;;;0.80;;
45322;SDS011;31382;50.200;8.674;2023-12-20T19:30:29;9.45;;;0.80;;
45322;SDS011;31382;50.200;8.674;2023-12-20T19:35:31;12.50;;;1.05;;
45322;SDS011;31382;50.200;8.674;2023-12-20T19:40:32;5.40;;;1.05;;
45322;SDS011;31382;50.200;8.674;2023-12-20T19:45:34;6.65;;;1.45;;
45322;SDS011;31382;50.200;8.674;2023-12-20T19:50:36;5.20;;;0.85;;
45322;SDS011;31382;50.200;8.674;2023-12-20T19:55:37;6.25;;;1.05;;
45322;SDS011;31382;50.200;8.674;2023-12-20T20:00:39;7.07;;;1.33;;
45322;SDS011;31382;50.200;8.674;2023-12-20T20:05:53;3.53;;;0.77;;
45322;SDS011;31382;50.200;8.674;2023-12-20T20:10:55;5.03;;;1.13;;
45322;SDS011;31382;50.200;8.674;2023-12-20T20:15:56;7.93;;;1.00;;
45322;SDS011;31382;50.200;8.674;2023-12-20T20:20:59;8.02;;;1.00;;
45322;SDS011;31382;50.200;8.674;2023-12-20T20:26:01;11.82;;;1.95;;
45322;SDS011;31382;50.200;8.674;2023-12-20T20:31:02;4.85;;;1.95;;
45322;SDS011;31382;50.200;8.674;2023-12-20T20:36:04;4.57;;;1.58;;
45322;SDS011;31382;50.200;8.674;2023-12-20T20:41:08;6.28;;;1.33;;
45322;SDS011;31382;50.200;8.674;2023-12-20T20:46:09;5.63;;;1.85;;
45322;SDS011;31382;50.200;8.674;2023-12-20T20:51:12;7.57;;;1.80;;
45322;SDS011;31382;50.200;8.674;2023-12-20T20:56:13;5.25;;;1.35;;
45322;SDS011;31382;50.200;8.674;2023-12-20T21:01:15;3.05;;;1.35;;
45322;SDS011;31382;50.200;8.674;2023-12-20T21:06:17;4.68;;;1.50;;
45322;SDS011;31382;50.200;8.674;2023-12-20T21:11:18;3.33;;;1.55;;
45322;SDS011;31382;50.200;8.674;2023-12-20T21:16:22;7.43;;;1.77;;
45322;SDS011;31382;50.200;8.674;2023-12-20T21:21:23;4.68;;;1.27;;
45322;SDS011;31382;50.200;8.674;2023-12-20T21:26:25;4.15;;;1.45;;
45322;SDS011;31382;50.200;8.674;2023-12-20T21:31:26;5.00;;;1.10;;
45322;SDS011;31382;50.200;8.674;2023-12-20T21:36:28;5.45;;;1.83;;
45322;SDS011;31382;50.200;8.674;2023-12-20T21:41:29;5.68;;;1.13;;
45322;SDS011;31382;50.200;8.674;2023-12-20T21:46:31;3.60;;;1.42;;
45322;SDS011;31382;50.200;8.674;2023-12-20T21:51:33;2.28;;;1.50;;
45322;SDS011;31382;50.200;8.674;2023-12-20T21:56:34;3.55;;;1.35;;
45322;SDS011;31382;50.200;8.674;2023-12-20T22:01:40;3.15;;;1.30;;
45322;SDS011;31382;50.200;8.674;2023-12-20T22:06:43;2.53;;;1.30;;
45322;SDS011;31382;50.200;8.674;2023-12-20T22:11:45;3.35;;;1.00;;
45322;SDS011;31382;50.200;8.674;2023-12-20T22:16:46;7.43;;;1.80;;
45322;SDS011;31382;50.200;8.674;2023-12-20T22:21:48;2.42;;;1.10;;
45322;SDS011;31382;50.200;8.674;2023-12-20T22:26:49;5.28;;;1.50;;
45322;SDS011;31382;50.200;8.674;2023-12-20T22:31:51;4.40;;;1.30;;
45322;SDS011;31382;50.200;8.674;2023-12-20T22:36:52;2.25;;;1.25;;
45322;SDS011;31382;50.200;8.674;2023-12-20T22:41:54;4.53;;;1.60;;
45322;SDS011;31382;50.200;8.674;2023-12-20T22:46:55;2.67;;;1.80;;
45322;SDS011;31382;50.200;8.674;2023-12-20T22:51:57;2.88;;;1.35;;
45322;SDS011;31382;50.200;8.674;2023-12-20T22:56:59;2.40;;;1.10;;
45322;SDS011;31382;50.200;8.674;2023-12-20T23:02:00;2.80;;;1.30;;
45322;SDS011;31382;50.200;8.674;2023-12-20T23:07:02;3.65;;;1.10;;
45322;SDS011;31382;50.200;8.674;2023-12-20T23:12:03;3.15;;;0.80;;
45322;SDS011;31382;50.200;8.674;2023-12-20T23:17:05;4.53;;;0.90;;
45322;SDS011;31382;50.200;8.674;2023-12-20T23:22:07;1.55;;;0.90;;
45322;SDS011;31382;50.200;8.674;2023-12-20T23:27:08;2.25;;;1.08;;
45322;SDS011;31382;50.200;8.674;2023-12-20T23:32:10;1.90;;;0.70;;
45322;SDS011;31382;50.200;8.674;2023-12-20T23:37:12;2.28;;;1.08;;
45322;SDS011;31382;50.200;8.674;2023-12-20T23:42:13;4.47;;;1.55;;
45322;SDS011;31382;50.200;8.674;2023-12-20T23:47:19;2.90;;;1.60;;
45322;SDS011;31382;50.200;8.674;2023-12-20T23:52:20;4.28;;;2.03;;
45322;SDS011;31382;50.200;8.674;2023-12-20T23:57:22;4.07;;;1.70;;
